Time;durP1;ratioP1;P1;durP2;ratioP2;P2;SDS_P1;SDS_P2;PMS_P1;PMS_P2;Temp;Humidity;BMP_temperature;BMP_pressure;BME280_temperature;BME280_humidity;BME280_pressure;Samples;Min_cycle;Max_cycle;Signal;HPM_P1;HPM_P2
2021/09/05 00:02:50;;;;;;;8.95;4.53;;;;;;;10.63;70.40;100713.30;2094393;84;21040;-75
2021/09/05 00:05:52;;;;;;;10.93;5.30;;;;;;;10.62;70.37;100720.43;2094190;84;20994;-76
2021/09/05 00:08:53;;;;;;;10.15;5.17;;;;;;;10.60;70.35;100721.06;2094505;84;20973;-77
2021/09/05 00:11:54;;;;;;;8.18;4.67;;;;;;;10.58;70.40;100725.69;2096441;84;21004;-74
2021/09/05 00:14:55;;;;;;;7.83;4.72;;;;;;;10.59;70.43;100728.70;2092048;84;20984;-75
2021/09/05 00:17:56;;;;;;;13.15;4.97;;;;;;;10.60;70.47;100736.16;2091304;84;21009;-76
2021/09/05 00:20:57;;;;;;;7.90;4.47;;;;;;;10.61;70.51;100741.80;2096391;84;21044;-74
2021/09/05 00:23:58;;;;;;;8.08;4.75;;;;;;;10.59;70.51;100736.66;2095338;84;21024;-77
2021/09/05 00:27:00;;;;;;;8.73;4.75;;;;;;;10.58;70.58;100741.61;2092249;84;21048;-77
2021/09/05 00:30:01;;;;;;;10.38;5.10;;;;;;;10.58;70.59;100741.61;2092721;84;21594;-78
2021/09/05 00:33:07;;;;;;;8.10;4.05;;;;;;;10.58;70.70;100745.59;2093350;84;21007;-77
2021/09/05 00:36:06;;;;;;;9.83;4.30;;;;;;;10.60;70.65;100744.95;2091789;84;21076;-76
2021/09/05 00:39:08;;;;;;;9.23;4.37;;;;;;;10.61;70.63;100746.61;2091321;84;21041;-77
2021/09/05 00:42:09;;;;;;;9.70;4.53;;;;;;;10.64;70.56;100756.09;2092384;84;21001;-76
2021/09/05 00:45:11;;;;;;;10.68;4.25;;;;;;;10.65;70.55;100757.78;2113950;84;21507;-77
2021/09/05 00:48:12;;;;;;;9.00;4.60;;;;;;;10.63;70.52;100756.59;2113103;83;21479;-76
2021/09/05 00:51:13;;;;;;;8.13;4.85;;;;;;;10.62;70.51;100755.43;2113542;83;21574;-76
2021/09/05 00:54:15;;;;;;;6.17;4.20;;;;;;;10.63;70.48;100758.41;2115753;83;21560;-77
2021/09/05 00:57:18;;;;;;;7.30;4.22;;;;;;;10.62;70.44;100752.28;2136393;82;21031;-77
2021/09/05 01:00:22;;;;;;;7.95;4.28;;;;;;;10.65;70.39;100753.80;2134175;82;21075;-76
2021/09/05 01:03:24;;;;;;;7.70;4.15;;;;;;;10.64;70.34;100752.11;2119497;83;21034;-75
2021/09/05 01:06:25;;;;;;;10.43;4.22;;;;;;;10.63;70.30;100755.76;2098547;83;21127;-76
2021/09/05 01:09:28;;;;;;;8.05;4.30;;;;;;;10.63;70.27;100753.10;2126638;82;21606;-75
2021/09/05 01:12:30;;;;;;;10.20;4.62;;;;;;;10.62;70.26;100756.25;2129025;82;21548;-77
2021/09/05 01:15:31;;;;;;;11.75;4.12;;;;;;;10.60;70.23;100752.91;2092467;84;21036;-76
2021/09/05 01:18:34;;;;;;;9.90;5.03;;;;;;;10.60;70.38;100760.88;2126314;81;21057;-77
2021/09/05 01:21:43;;;;;;;7.80;4.17;;;;;;;10.59;70.31;100761.87;2113014;82;21162;-78
2021/09/05 01:24:55;;;;;;;8.30;4.40;;;;;;;10.57;70.32;100765.66;2125758;82;21059;-77
2021/09/05 01:28:14;;;;;;;7.28;3.90;;;;;;;10.55;70.33;100773.75;2087249;84;21077;-76
2021/09/05 01:31:42;;;;;;;6.87;4.15;;;;;;;10.54;70.41;100779.56;2130272;82;21120;-77
2021/09/05 01:35:03;;;;;;;6.30;3.50;;;;;;;10.52;70.44;100776.21;2096444;83;21072;-75
2021/09/05 01:38:22;;;;;;;7.10;4.03;;;;;;;10.45;70.49;100784.95;2085379;84;21044;-76
2021/09/05 01:41:32;;;;;;;5.62;3.50;;;;;;;10.36;70.71;100780.05;2073176;84;20993;-75
2021/09/05 01:44:41;;;;;;;8.43;4.42;;;;;;;10.35;70.78;100786.31;2112516;82;21530;-77
2021/09/05 01:47:42;;;;;;;7.70;4.53;;;;;;;10.29;71.03;100785.09;2129855;82;21032;-78
2021/09/05 01:50:52;;;;;;;10.13;4.17;;;;;;;10.25;70.98;100783.70;2133756;82;21045;-76
2021/09/05 01:53:58;;;;;;;8.80;4.53;;;;;;;10.23;71.10;100789.64;2088148;83;21027;-76
2021/09/05 01:57:18;;;;;;;12.33;4.50;;;;;;;10.17;71.09;100792.89;2098329;83;21216;-78
2021/09/05 02:00:20;;;;;;;8.00;3.75;;;;;;;10.14;71.02;100798.98;2099962;83;21124;-77
2021/09/05 02:03:23;;;;;;;9.90;4.15;;;;;;;10.09;71.11;100796.27;2096587;83;21061;-77
2021/09/05 02:06:35;;;;;;;7.65;4.03;;;;;;;10.07;71.15;100794.73;2100170;83;21863;-79
2021/09/05 02:09:41;;;;;;;8.88;4.25;;;;;;;10.06;71.16;100799.70;2102306;83;21687;-79
2021/09/05 02:12:59;;;;;;;7.47;4.08;;;;;;;10.02;71.18;100789.89;2094989;84;21602;-74
2021/09/05 02:16:03;;;;;;;7.42;4.45;;;;;;;10.02;71.22;100802.30;2099631;83;21043;-76
2021/09/05 02:19:15;;;;;;;10.03;4.15;;;;;;;9.99;71.23;100803.91;2134809;82;21083;-76
2021/09/05 02:22:27;;;;;;;10.53;4.80;;;;;;;9.96;71.35;100806.86;2130058;81;21083;-77
2021/09/05 02:25:45;;;;;;;7.17;4.40;;;;;;;9.86;71.40;100798.46;2129870;82;21008;-78
2021/09/05 02:28:48;;;;;;;10.78;4.00;;;;;;;9.82;71.46;100807.67;2130539;82;20998;-76
2021/09/05 02:31:57;;;;;;;9.13;4.37;;;;;;;9.79;71.50;100797.36;2128625;82;21063;-77
2021/09/05 02:35:11;;;;;;;8.80;4.42;;;;;;;9.78;71.56;100804.98;2069765;82;21752;-76
2021/09/05 02:38:16;;;;;;;6.65;4.00;;;;;;;9.76;71.54;100804.28;2125375;82;21042;-73
2021/09/05 02:41:20;;;;;;;8.63;4.62;;;;;;;9.74;71.61;100808.05;2125074;82;21044;-76
2021/09/05 02:44:34;;;;;;;8.10;3.75;;;;;;;9.68;71.59;100818.73;2131624;82;20989;-76
2021/09/05 02:47:47;;;;;;;11.97;4.55;;;;;;;9.55;71.74;100816.41;2129494;82;21056;-77
2021/09/05 02:50:59;;;;;;;7.72;4.40;;;;;;;9.49;71.78;100814.34;2076545;82;21017;-77
2021/09/05 02:54:14;;;;;;;7.10;4.10;;;;;;;9.48;72.01;100816.63;2127228;82;21032;-75
2021/09/05 02:57:33;;;;;;;5.37;3.85;;;;;;;9.45;71.98;100816.08;2128237;82;21067;-75
2021/09/05 03:00:49;;;;;;;10.38;4.90;;;;;;;9.40;72.24;100818.69;2099269;82;20933;-76
2021/09/05 03:04:09;;;;;;;10.28;4.60;;;;;;;9.37;72.44;100814.96;2132302;82;21072;-76
2021/09/05 03:07:29;;;;;;;;;;;;;;;9.34;72.47;100819.22;2137058;81;21032;-78
2021/09/05 03:10:47;;;;;;;6.20;4.17;;;;;;;9.33;72.55;100818.06;2114369;83;20154;-77
2021/09/05 03:13:53;;;;;;;7.97;4.35;;;;;;;9.27;72.57;100816.81;2116677;83;21044;-75
2021/09/05 03:17:11;;;;;;;10.70;4.58;;;;;;;9.26;72.70;100818.27;1974589;88;21079;-75
2021/09/05 03:20:14;;;;;;;10.63;4.37;;;;;;;9.28;72.75;100814.99;2108695;83;21056;-76
2021/09/05 03:23:17;;;;;;;9.23;4.33;;;;;;;9.26;72.70;100813.80;2116685;83;21522;-76
2021/09/05 03:26:22;;;;;;;8.03;3.92;;;;;;;9.23;72.74;100818.05;2121374;82;21036;-75
2021/09/05 03:29:42;;;;;;;8.28;4.35;;;;;;;9.21;72.85;100821.35;2122890;83;21618;-77
2021/09/05 03:32:57;;;;;;;7.12;4.08;;;;;;;9.18;72.87;100816.34;2119113;82;21740;-76
2021/09/05 03:36:15;;;;;;;8.98;4.42;;;;;;;9.16;72.87;100815.64;2032325;86;21038;-75
2021/09/05 03:39:21;;;;;;;10.45;4.78;;;;;;;9.15;72.91;100822.75;2113109;82;21499;-78
2021/09/05 03:42:41;;;;;;;6.12;3.92;;;;;;;9.13;73.00;100823.86;2122198;82;21040;-77
2021/09/05 03:46:01;;;;;;;8.95;4.42;;;;;;;9.12;73.10;100818.20;2117847;82;21060;-75
2021/09/05 03:49:06;;;;;;;8.73;4.62;;;;;;;9.09;73.11;100831.72;2104073;83;20985;-78
2021/09/05 03:52:08;;;;;;;8.53;4.28;;;;;;;9.07;73.19;100829.72;2121094;83;21387;-76
2021/09/05 03:55:11;;;;;;;8.50;4.12;;;;;;;8.99;73.18;100839.67;2114806;82;21100;-78
2021/09/05 03:58:13;;;;;;;8.18;4.08;;;;;;;8.92;73.24;100835.41;2100783;84;21048;-78
2021/09/05 04:01:14;;;;;;;11.50;3.87;;;;;;;8.91;73.34;100839.03;2073785;85;21048;-76
2021/09/05 04:04:16;;;;;;;7.78;4.08;;;;;;;8.88;73.41;100839.31;2099376;84;21044;-75
2021/09/05 04:07:20;;;;;;;6.20;3.92;;;;;;;8.88;73.27;100839.31;2095647;84;20978;-75
2021/09/05 04:10:20;;;;;;;8.48;4.78;;;;;;;8.84;73.33;100844.55;2103265;83;21600;-79
2021/09/05 04:13:21;;;;;;;7.03;3.75;;;;;;;8.85;73.52;100853.32;2101501;84;20992;-77
2021/09/05 04:16:22;;;;;;;7.97;4.15;;;;;;;8.84;73.35;100856.45;2100688;84;21060;-76
2021/09/05 04:19:23;;;;;;;5.28;3.75;;;;;;;8.84;73.46;100859.11;2100737;84;21435;-76
2021/09/05 04:22:25;;;;;;;9.83;5.08;;;;;;;8.85;73.37;100863.91;2098105;84;21044;-77
2021/09/05 04:25:26;;;;;;;8.33;4.42;;;;;;;8.89;73.61;100863.96;2099800;84;21045;-77
2021/09/05 04:28:27;;;;;;;6.67;3.92;;;;;;;8.88;73.56;100870.24;2097862;84;20961;-74
2021/09/05 04:31:29;;;;;;;9.13;5.08;;;;;;;8.87;73.68;100873.38;2099725;83;21087;-75
2021/09/05 04:34:30;;;;;;;13.95;5.20;;;;;;;8.88;73.75;100882.98;2099422;84;21020;-78
2021/09/05 04:37:31;;;;;;;8.13;4.47;;;;;;;8.89;73.85;100876.70;2100244;84;21052;-74
2021/09/05 04:40:32;;;;;;;10.00;4.00;;;;;;;8.92;73.84;100879.56;2100720;84;21028;-76
2021/09/05 04:43:33;;;;;;;8.23;4.00;;;;;;;8.92;73.95;100884.37;2101842;84;21043;-77
2021/09/05 04:46:34;;;;;;;7.42;3.90;;;;;;;8.95;73.99;100889.41;2098033;84;21473;-75
2021/09/05 04:49:36;;;;;;;7.28;4.05;;;;;;;8.97;74.11;100887.45;2098388;84;21563;-77
2021/09/05 04:52:37;;;;;;;9.30;4.97;;;;;;;9.01;74.18;100888.48;2100399;83;20992;-76
2021/09/05 04:55:38;;;;;;;9.00;4.22;;;;;;;9.13;74.31;100890.05;2102735;83;21088;-81
2021/09/05 04:58:39;;;;;;;6.42;4.33;;;;;;;9.33;74.33;100891.72;2076882;85;21064;-78
2021/09/05 05:01:40;;;;;;;7.47;4.03;;;;;;;9.61;74.24;100890.52;2077312;85;21068;-79
2021/09/05 05:04:41;;;;;;;9.25;4.97;;;;;;;9.88;74.02;100898.56;2079354;85;21036;-76
2021/09/05 05:07:42;;;;;;;8.60;4.30;;;;;;;10.14;73.65;100907.21;2065356;85;21107;-77
2021/09/05 05:10:46;;;;;;;8.13;3.90;;;;;;;10.46;73.50;100910.80;2075382;84;21488;-75
2021/09/05 05:13:47;;;;;;;8.70;4.17;;;;;;;10.88;73.14;100911.63;2074749;85;21052;-75
2021/09/05 05:16:49;;;;;;;8.40;3.85;;;;;;;11.33;72.90;100919.22;2098889;83;21068;-75
2021/09/05 05:19:50;;;;;;;5.37;3.77;;;;;;;11.91;72.55;100916.07;2099339;84;21095;-76
2021/09/05 05:22:51;;;;;;;7.33;4.17;;;;;;;12.33;71.99;100884.69;2099764;83;21633;-78
2021/09/05 05:25:52;;;;;;;8.10;4.33;;;;;;;13.03;71.38;100919.04;2106888;83;21080;-75
2021/09/05 05:28:55;;;;;;;8.38;4.10;;;;;;;13.57;70.72;100926.16;2078912;85;21534;-77
2021/09/05 05:31:56;;;;;;;8.13;4.00;;;;;;;14.13;70.24;100924.91;2077084;85;21017;-77
2021/09/05 05:34:57;;;;;;;6.37;4.62;;;;;;;14.55;69.20;100929.98;2078368;85;21000;-76
2021/09/05 05:37:59;;;;;;;8.00;4.12;;;;;;;14.85;68.05;100929.37;2094256;84;21527;-75
2021/09/05 05:41:00;;;;;;;9.40;4.15;;;;;;;15.14;67.50;100929.52;2107512;83;21047;-75
2021/09/05 05:44:01;;;;;;;6.37;3.87;;;;;;;15.44;67.14;100935.83;2110379;83;21569;-75
2021/09/05 05:47:02;;;;;;;7.25;4.00;;;;;;;15.85;66.84;100938.22;2110528;83;21510;-74
2021/09/05 05:50:04;;;;;;;7.87;3.72;;;;;;;16.27;65.75;100940.78;2110090;83;21539;-75
2021/09/05 05:53:05;;;;;;;7.53;4.40;;;;;;;16.69;64.34;100939.80;2071953;85;21016;-74
2021/09/05 05:56:07;;;;;;;6.22;3.40;;;;;;;16.96;64.26;100933.78;2087767;84;21079;-74
2021/09/05 05:59:08;;;;;;;5.17;3.83;;;;;;;17.16;61.18;100941.22;2140709;83;21029;-74
2021/09/05 06:02:09;;;;;;;6.00;4.00;;;;;;;16.88;61.12;100945.13;2110834;83;20959;-74
2021/09/05 06:05:12;;;;;;;7.87;4.50;;;;;;;16.86;61.02;100956.53;2111859;84;21005;-74
2021/09/05 06:08:14;;;;;;;5.72;4.33;;;;;;;17.07;61.21;100945.05;2109541;83;21527;-74
2021/09/05 06:11:15;;;;;;;6.75;4.78;;;;;;;17.31;60.56;100958.08;2111359;83;21088;-75
2021/09/05 06:14:16;;;;;;;8.50;4.00;;;;;;;17.62;60.66;100956.94;2109193;84;20980;-74
2021/09/05 06:17:17;;;;;;;7.08;4.12;;;;;;;17.81;58.95;100957.66;2110132;83;21022;-74
2021/09/05 06:20:18;;;;;;;7.08;4.67;;;;;;;17.92;57.94;100962.49;2107363;83;21456;-72
2021/09/05 06:23:20;;;;;;;7.03;3.87;;;;;;;17.74;57.53;100962.13;2109974;84;21012;-74
2021/09/05 06:26:21;;;;;;;6.45;4.10;;;;;;;17.61;57.81;100968.70;2112349;84;21012;-73
2021/09/05 06:29:22;;;;;;;6.83;4.30;;;;;;;17.62;57.15;100971.17;2109670;84;20949;-74
2021/09/05 06:32:23;;;;;;;7.40;4.15;;;;;;;17.63;56.21;100972.03;2111690;83;21483;-74
2021/09/05 06:35:24;;;;;;;5.30;3.95;;;;;;;17.76;56.52;100969.96;2109674;83;20981;-74
2021/09/05 06:38:25;;;;;;;5.28;3.92;;;;;;;17.76;56.19;100976.67;2112969;84;20990;-81
2021/09/05 06:41:29;;;;;;;7.05;3.58;;;;;;;17.67;55.46;100986.20;2111118;84;21049;-74
2021/09/05 06:44:30;;;;;;;5.97;3.95;;;;;;;17.75;56.38;100983.90;2109703;84;21084;-75
2021/09/05 06:47:31;;;;;;;5.75;3.70;;;;;;;17.82;55.21;100989.34;2109734;84;21034;-74
2021/09/05 06:50:33;;;;;;;4.75;3.35;;;;;;;17.96;54.14;100989.78;2110443;84;20992;-74
2021/09/05 06:53:34;;;;;;;9.20;3.80;;;;;;;18.05;54.83;100989.16;2109744;83;20925;-75
2021/09/05 06:56:35;;;;;;;5.20;3.50;;;;;;;18.44;55.23;100999.84;2109522;83;21054;-80
2021/09/05 06:59:36;;;;;;;6.45;3.50;;;;;;;18.43;53.16;100996.84;2082597;84;21099;-79
2021/09/05 07:02:37;;;;;;;5.12;3.60;;;;;;;18.30;52.56;101005.63;2089092;84;20992;-77
2021/09/05 07:05:39;;;;;;;4.60;3.10;;;;;;;18.23;51.86;101007.45;2086835;84;21001;-75
2021/09/05 07:08:41;;;;;;;6.00;3.58;;;;;;;18.27;52.38;101009.57;2089026;84;21048;-76
2021/09/05 07:11:42;;;;;;;7.12;3.12;;;;;;;18.25;52.13;101016.98;2086882;84;21005;-76
2021/09/05 07:14:43;;;;;;;4.95;3.05;;;;;;;18.42;51.63;101018.03;2088409;84;20965;-76
2021/09/05 07:17:44;;;;;;;6.67;3.08;;;;;;;18.44;51.09;101023.50;2085927;84;21025;-76
2021/09/05 07:20:45;;;;;;;6.67;3.15;;;;;;;18.36;51.12;101030.39;2068260;84;22289;-76
2021/09/05 07:23:47;;;;;;;4.42;3.20;;;;;;;18.44;51.24;101028.05;2115670;83;20984;-75
2021/09/05 07:26:48;;;;;;;6.58;3.20;;;;;;;18.79;51.52;101027.59;2100887;83;20972;-76
2021/09/05 07:29:49;;;;;;;5.60;3.27;;;;;;;18.98;50.63;101021.48;2098987;83;21001;-76
2021/09/05 07:32:51;;;;;;;5.80;3.20;;;;;;;19.15;50.27;101030.03;2102249;83;21452;-75
2021/09/05 07:35:52;;;;;;;6.08;3.17;;;;;;;19.15;49.76;101034.59;2102575;83;21033;-79
2021/09/05 07:38:53;;;;;;;5.08;3.22;;;;;;;19.00;48.59;101037.41;2113288;83;21027;-78
2021/09/05 07:41:54;;;;;;;7.12;3.47;;;;;;;18.85;49.17;101040.23;2101768;83;21060;-77
2021/09/05 07:44:57;;;;;;;5.17;3.10;;;;;;;18.83;50.00;101027.49;2117644;83;21094;-78
2021/09/05 07:47:59;;;;;;;8.28;3.40;;;;;;;19.00;49.05;101030.67;2102779;83;20981;-79
2021/09/05 07:51:00;;;;;;;4.12;2.72;;;;;;;19.23;49.71;101041.11;2109082;84;21028;-74
2021/09/05 07:54:01;;;;;;;5.60;2.70;;;;;;;19.28;48.85;101039.17;2065288;84;21040;-77
2021/09/05 07:57:03;;;;;;;5.03;2.77;;;;;;;19.39;48.80;101048.01;2113228;83;21075;-75
2021/09/05 08:00:06;;;;;;;4.80;3.05;;;;;;;19.32;48.37;101049.87;2107232;84;21612;-76
2021/09/05 08:03:09;;;;;;;4.58;2.90;;;;;;;19.23;48.07;101052.73;2106799;83;21098;-76
2021/09/05 08:06:10;;;;;;;5.05;3.30;;;;;;;19.44;48.76;101055.79;2109822;84;21047;-74
2021/09/05 08:09:11;;;;;;;5.05;2.90;;;;;;;19.56;47.03;101059.24;2108558;84;21016;-75
2021/09/05 08:12:12;;;;;;;3.72;2.25;;;;;;;19.61;47.76;101062.16;2107434;84;21067;-77
2021/09/05 08:15:14;;;;;;;5.95;2.67;;;;;;;19.73;47.45;101061.89;2110211;84;21000;-76
2021/09/05 08:18:15;;;;;;;3.80;2.45;;;;;;;20.06;47.85;101064.64;2109346;84;21044;-78
2021/09/05 08:21:16;;;;;;;5.60;2.60;;;;;;;20.24;46.03;101065.88;2110736;84;20966;-77
2021/09/05 08:24:18;;;;;;;3.45;2.40;;;;;;;20.18;45.27;101070.23;2109113;84;21007;-76
2021/09/05 08:27:19;;;;;;;4.28;2.65;;;;;;;20.10;45.64;101070.44;2107812;84;21056;-76
2021/09/05 08:30:20;;;;;;;3.47;2.45;;;;;;;20.36;46.59;101076.37;2142423;82;21013;-77
2021/09/05 08:33:21;;;;;;;4.40;2.50;;;;;;;20.54;45.51;101070.36;2144598;82;21491;-77
2021/09/05 08:36:22;;;;;;;4.50;2.45;;;;;;;20.82;44.63;101068.23;2144263;82;20972;-76
2021/09/05 08:39:26;;;;;;;4.10;2.80;;;;;;;20.93;44.53;101075.38;2144566;82;21011;-74
2021/09/05 08:42:30;;;;;;;3.47;2.17;;;;;;;21.05;44.27;101075.84;2145833;82;21005;-77
2021/09/05 08:45:32;;;;;;;9.70;2.92;;;;;;;21.07;43.42;101074.81;2142844;82;21025;-77
2021/09/05 08:48:36;;;;;;;6.15;2.80;;;;;;;20.95;44.44;101071.95;2113897;83;21036;-77
2021/09/05 08:51:37;;;;;;;3.42;2.20;;;;;;;21.34;43.25;101066.90;2145297;82;21031;-78
2021/09/05 08:54:38;;;;;;;3.55;2.58;;;;;;;21.25;42.25;101064.97;2145770;82;21123;-78
2021/09/05 08:57:39;;;;;;;3.70;2.25;;;;;;;21.26;43.58;101065.30;2136169;82;21051;-76
2021/09/05 09:00:42;;;;;;;2.87;1.90;;;;;;;21.49;42.78;101067.49;2096315;82;21024;-77
2021/09/05 09:03:43;;;;;;;3.02;2.15;;;;;;;21.61;42.95;101066.28;2134069;82;20999;-77
2021/09/05 09:06:44;;;;;;;3.05;2.42;;;;;;;21.45;40.75;101073.52;2129700;82;20965;-74
2021/09/05 09:09:59;;;;;;;6.47;2.60;;;;;;;21.20;39.90;101071.55;2132274;82;20995;-77
2021/09/05 09:13:00;;;;;;;4.12;2.20;;;;;;;21.00;41.77;101075.64;2138645;82;21485;-77
2021/09/05 09:16:13;;;;;;;2.75;2.10;;;;;;;21.32;39.91;101074.93;2092649;84;21008;-76
2021/09/05 09:19:26;;;;;;;4.25;1.90;;;;;;;21.15;40.42;101073.23;2096377;84;21460;-75
2021/09/05 09:22:27;;;;;;;3.22;2.30;;;;;;;21.13;41.00;101072.61;2093180;84;21004;-76
2021/09/05 09:25:28;;;;;;;2.85;1.90;;;;;;;21.12;41.19;101082.58;2094911;84;21454;-77
2021/09/05 09:28:41;;;;;;;5.40;2.10;;;;;;;21.33;39.54;101070.65;2093945;84;21030;-78
2021/09/05 09:31:45;;;;;;;2.67;1.92;;;;;;;21.36;39.88;101074.27;2096872;84;21083;-75
2021/09/05 09:34:48;;;;;;;3.55;2.08;;;;;;;21.44;39.32;101065.95;2094323;84;20962;-76
2021/09/05 09:37:49;;;;;;;2.47;2.00;;;;;;;21.53;39.85;101062.48;2093677;84;21027;-76
2021/09/05 09:41:09;;;;;;;3.58;2.37;;;;;;;21.55;38.52;101084.70;2091320;84;21029;-76
2021/09/05 09:44:13;;;;;;;2.90;1.90;;;;;;;21.27;38.66;101074.21;2095508;84;20997;-77
2021/09/05 09:47:15;;;;;;;3.15;2.27;;;;;;;21.49;39.76;101066.67;2095793;84;20957;-75
2021/09/05 09:50:22;;;;;;;3.27;2.30;;;;;;;21.55;39.67;101077.13;2098529;84;21031;-76
2021/09/05 09:53:25;;;;;;;2.70;1.92;;;;;;;21.38;38.61;101070.87;2093096;84;21025;-77
2021/09/05 09:56:27;;;;;;;2.33;1.90;;;;;;;21.27;37.94;101086.36;2112385;83;21001;-76
2021/09/05 09:59:29;;;;;;;2.98;2.00;;;;;;;21.10;37.96;101082.48;2114987;83;20993;-76
2021/09/05 10:02:34;;;;;;;2.80;2.37;;;;;;;20.95;38.24;101075.47;2114133;83;21060;-75
2021/09/05 10:05:35;;;;;;;3.98;1.92;;;;;;;21.06;39.35;101075.31;2115084;84;21709;-77
2021/09/05 10:08:40;;;;;;;3.85;2.20;;;;;;;20.98;38.42;101069.65;2113310;84;21021;-76
2021/09/05 10:11:42;;;;;;;3.20;2.12;;;;;;;21.05;37.74;101075.84;2112915;82;20973;-77
2021/09/05 10:14:47;;;;;;;1.85;1.70;;;;;;;20.96;37.08;101071.72;2112953;83;21004;-75
2021/09/05 10:17:49;;;;;;;2.20;1.92;;;;;;;20.79;38.34;101079.97;2114004;84;21006;-77
2021/09/05 10:20:53;;;;;;;3.87;1.87;;;;;;;20.89;38.31;101080.38;2114603;83;21048;-74
2021/09/05 10:23:57;;;;;;;2.47;2.15;;;;;;;20.92;38.56;101083.14;2112693;83;21013;-76
2021/09/05 10:27:03;;;;;;;2.85;1.87;;;;;;;20.86;37.99;101074.02;2113190;84;20981;-78
2021/09/05 10:30:15;;;;;;;3.08;1.90;;;;;;;20.94;38.48;101072.45;2113303;84;21563;-76
2021/09/05 10:33:21;;;;;;;4.92;2.40;;;;;;;20.89;38.61;101066.03;2112462;83;21017;-77
2021/09/05 10:36:25;;;;;;;2.65;2.05;;;;;;;20.78;38.63;101067.53;2109835;83;20977;-76
2021/09/05 10:39:26;;;;;;;2.37;2.08;;;;;;;20.80;39.07;101058.16;2115461;83;21566;-76
2021/09/05 10:42:28;;;;;;;2.55;2.10;;;;;;;20.94;39.23;101077.02;2113770;84;21563;-76
2021/09/05 10:45:29;;;;;;;4.47;2.30;;;;;;;20.87;38.17;101067.61;2112986;84;20981;-75
2021/09/05 10:48:37;;;;;;;3.83;2.27;;;;;;;20.69;39.37;101070.13;2091443;84;21172;-74
2021/09/05 10:51:47;;;;;;;3.90;2.47;;;;;;;20.73;39.90;101064.64;2114807;84;21008;-75
2021/09/05 10:54:50;;;;;;;3.52;2.37;;;;;;;20.76;39.65;101059.64;2111898;84;21024;-74
2021/09/05 10:57:57;;;;;;;5.85;1.92;;;;;;;20.93;38.87;101060.53;2112464;83;21009;-74
2021/09/05 11:01:03;;;;;;;4.42;2.20;;;;;;;21.01;39.72;101069.22;2112337;83;21009;-73
2021/09/05 11:04:17;;;;;;;2.85;2.33;;;;;;;21.05;39.28;101067.74;2113872;83;21515;-74
2021/09/05 11:07:33;;;;;;;4.17;2.60;;;;;;;21.15;40.09;101063.79;2112277;84;21000;-75
2021/09/05 11:10:52;;;;;;;6.95;2.20;;;;;;;20.97;38.60;101072.55;2112811;83;21052;-73
2021/09/05 11:13:53;;;;;;;5.20;2.00;;;;;;;20.84;38.85;101072.08;2113404;84;21460;-74
2021/09/05 11:16:54;;;;;;;2.92;2.35;;;;;;;20.81;38.93;101072.50;2113847;83;20981;-73
2021/09/05 11:20:00;;;;;;;3.45;1.90;;;;;;;20.88;38.75;101066.55;2112447;83;21028;-75
2021/09/05 11:23:03;;;;;;;3.00;2.22;;;;;;;20.91;38.54;101065.30;2112625;83;21061;-74
2021/09/05 11:26:08;;;;;;;4.35;2.05;;;;;;;20.72;37.85;101060.27;2112114;83;20981;-73
2021/09/05 11:29:27;;;;;;;2.60;2.10;;;;;;;20.67;38.93;101066.30;2111423;83;21016;-74
2021/09/05 11:32:28;;;;;;;3.42;2.05;;;;;;;20.87;39.23;101064.09;2113265;83;21013;-76
2021/09/05 11:35:43;;;;;;;4.03;2.00;;;;;;;20.96;38.33;101055.53;2114047;83;20982;-75
2021/09/05 11:38:45;;;;;;;3.33;2.12;;;;;;;20.84;37.27;101069.91;2113542;83;21143;-75
2021/09/05 11:41:59;;;;;;;2.92;2.05;;;;;;;20.80;37.85;101069.48;2114147;83;21149;-75
2021/09/05 11:45:05;;;;;;;3.60;2.00;;;;;;;20.82;37.75;101061.48;2112123;83;21491;-72
2021/09/05 11:48:08;;;;;;;2.45;2.10;;;;;;;20.77;38.14;101061.81;2111225;84;21429;-73
2021/09/05 11:51:09;;;;;;;3.15;2.08;;;;;;;20.72;38.56;101057.56;2114016;84;21520;-74
2021/09/05 11:54:11;;;;;;;2.10;1.90;;;;;;;20.88;37.55;101055.77;2113632;84;21714;-75
2021/09/05 11:57:12;;;;;;;2.42;2.17;;;;;;;20.90;37.44;101059.09;2114043;84;21333;-75
2021/09/05 12:00:28;;;;;;;2.87;2.02;;;;;;;21.02;37.83;101062.77;2146829;82;21433;-74
2021/09/05 12:03:30;;;;;;;2.87;1.98;;;;;;;21.03;37.83;101064.45;2146054;81;21128;-74
2021/09/05 12:06:32;;;;;;;3.58;1.92;;;;;;;21.06;38.22;101060.47;2141162;82;21019;-74
2021/09/05 12:09:35;;;;;;;3.00;2.00;;;;;;;21.00;37.86;101065.38;2144806;82;21031;-75
2021/09/05 12:12:39;;;;;;;3.72;1.98;;;;;;;20.91;38.42;101060.73;2143210;82;21483;-72
2021/09/05 12:15:47;;;;;;;2.52;1.70;;;;;;;21.13;38.41;101060.47;2140843;82;21050;-73
2021/09/05 12:19:08;;;;;;;4.08;1.85;;;;;;;21.11;36.89;101066.59;2099113;83;20982;-73
2021/09/05 12:22:09;;;;;;;2.35;2.05;;;;;;;21.08;37.71;101063.80;2104104;84;21526;-75
2021/09/05 12:25:25;;;;;;;4.70;2.05;;;;;;;21.03;37.23;101071.69;2109348;83;21068;-74
2021/09/05 12:28:33;;;;;;;1.85;1.60;;;;;;;20.98;37.72;101062.08;2139826;82;21044;-75
2021/09/05 12:31:45;;;;;;;2.58;2.10;;;;;;;21.07;38.20;101057.28;2140197;82;21042;-73
2021/09/05 12:34:48;;;;;;;2.27;2.00;;;;;;;21.17;37.81;101061.68;2137332;82;21075;-74
2021/09/05 12:37:55;;;;;;;2.02;1.70;;;;;;;20.97;37.49;101055.02;2138184;81;21047;-73
2021/09/05 12:41:13;;;;;;;2.20;1.62;;;;;;;21.01;37.25;101056.26;2134512;81;21476;-73
2021/09/05 12:44:15;;;;;;;1.77;1.67;;;;;;;20.96;37.19;101054.19;2141684;81;21046;-72
2021/09/05 12:47:28;;;;;;;1.57;1.47;;;;;;;20.89;37.12;101058.80;2139240;81;20969;-74
2021/09/05 12:50:30;;;;;;;2.85;1.77;;;;;;;20.92;37.78;101062.91;2136619;81;21073;-74
2021/09/05 12:53:32;;;;;;;2.25;2.05;;;;;;;20.90;36.79;101059.62;2137605;81;21001;-75
2021/09/05 12:56:33;;;;;;;2.67;1.70;;;;;;;20.89;38.23;101057.94;2136049;81;21052;-74
2021/09/05 12:59:34;;;;;;;2.67;1.95;;;;;;;20.91;37.76;101063.44;2112655;81;21045;-75
2021/09/05 13:02:36;;;;;;;2.12;1.62;;;;;;;20.84;38.42;101049.68;2131963;82;21599;-76
2021/09/05 13:05:38;;;;;;;2.40;1.77;;;;;;;20.87;38.00;101055.47;2113046;83;21060;-75
2021/09/05 13:08:41;;;;;;;3.30;1.92;;;;;;;20.92;38.21;101042.18;2113628;83;21088;-75
2021/09/05 13:11:48;;;;;;;3.50;1.92;;;;;;;20.82;38.56;101039.09;2114208;84;20960;-76
2021/09/05 13:14:46;;;;;;;3.35;1.82;;;;;;;20.85;37.95;101047.28;2112564;83;21021;-75
2021/09/05 13:17:48;;;;;;;2.30;1.80;;;;;;;20.90;38.35;101048.30;2088731;84;21024;-75
2021/09/05 13:20:51;;;;;;;2.08;1.70;;;;;;;20.88;37.60;101045.50;2114094;84;21076;-76
2021/09/05 13:23:53;;;;;;;3.40;1.60;;;;;;;20.86;37.91;101053.80;2109978;84;21001;-76
2021/09/05 13:26:55;;;;;;;1.70;1.60;;;;;;;20.68;37.49;101045.56;2113547;83;21037;-74
2021/09/05 13:29:57;;;;;;;1.87;1.55;;;;;;;20.63;35.93;101044.00;2112564;84;21101;-79
2021/09/05 13:32:58;;;;;;;2.55;1.67;;;;;;;20.64;38.89;101051.05;2113547;83;21040;-75
2021/09/05 13:36:00;;;;;;;6.45;2.02;;;;;;;20.60;38.05;101048.77;2112930;83;21549;-77
2021/09/05 13:39:03;;;;;;;2.58;1.62;;;;;;;20.50;37.13;101047.54;2113788;84;21587;-74
2021/09/05 13:42:04;;;;;;;2.08;1.65;;;;;;;20.41;37.68;101043.38;2112737;83;21067;-76
2021/09/05 13:45:07;;;;;;;1.85;1.67;;;;;;;20.40;37.69;101039.04;2112728;83;21487;-76
2021/09/05 13:48:09;;;;;;;1.80;1.37;;;;;;;20.30;38.53;101038.09;2113686;83;21053;-77
2021/09/05 13:51:11;;;;;;;1.70;1.50;;;;;;;20.32;37.79;101027.95;2113869;83;21060;-76
2021/09/05 13:54:13;;;;;;;1.82;1.65;;;;;;;20.31;38.99;101034.39;2114103;83;21011;-74
2021/09/05 13:57:15;;;;;;;2.08;1.55;;;;;;;20.38;39.14;101033.84;2111388;83;20965;-74
2021/09/05 14:00:18;;;;;;;5.72;2.35;;;;;;;20.40;39.00;101037.69;2109052;83;21057;-75
2021/09/05 14:03:20;;;;;;;3.87;2.00;;;;;;;20.39;38.66;101044.95;2137873;81;21066;-77
2021/09/05 14:06:23;;;;;;;1.90;1.70;;;;;;;20.36;38.09;101035.94;2102248;83;21024;-74
2021/09/05 14:09:24;;;;;;;6.40;1.77;;;;;;;20.31;37.76;101036.55;2104829;83;21487;-78
2021/09/05 14:12:26;;;;;;;3.72;1.72;;;;;;;20.22;37.75;101043.73;2102807;83;21044;-75
2021/09/05 14:15:28;;;;;;;2.80;1.80;;;;;;;20.13;38.05;101037.20;2104049;83;21048;-79
2021/09/05 14:18:29;;;;;;;1.65;1.55;;;;;;;20.10;37.95;101039.45;2101204;83;21098;-77
2021/09/05 14:21:31;;;;;;;2.22;1.82;;;;;;;20.12;38.51;101038.21;2106928;83;21068;-78